createdAt,value
2019-05-10T00:00:15.331Z,6.55
2019-05-10T00:03:01.603Z,7.45
2019-05-10T00:05:47.935Z,8.03
2019-05-10T00:08:34.338Z,7.85
2019-05-10T00:11:08.239Z,8.23
2019-05-10T00:13:41.077Z,7.87
2019-05-10T00:16:09.305Z,9.25
2019-05-10T00:18:37.529Z,8.78
2019-05-10T00:21:05.759Z,8.15
2019-05-10T00:23:33.980Z,9.48
2019-05-10T00:26:02.207Z,9.90
2019-05-10T00:28:30.430Z,7.25
2019-05-10T00:30:59.202Z,8.85
2019-05-10T00:33:28.239Z,7.45
2019-05-10T00:35:58.133Z,10.60
2019-05-10T00:38:26.355Z,8.88
2019-05-10T00:40:54.588Z,9.58
2019-05-10T00:43:23.037Z,9.28
2019-05-10T00:45:51.300Z,8.88
2019-05-10T00:48:19.601Z,8.78
2019-05-10T00:50:47.840Z,10.53
2019-05-10T00:53:16.156Z,9.75
2019-05-10T00:55:44.448Z,9.90
2019-05-10T00:58:12.712Z,10.95
2019-05-10T01:00:40.942Z,9.33
2019-05-10T01:03:09.191Z,8.90
2019-05-10T01:05:39.307Z,9.33
2019-05-10T01:08:07.555Z,10.60
2019-05-10T01:10:35.786Z,9.10
2019-05-10T01:13:04.108Z,9.28
2019-05-10T01:15:32.341Z,9.63
2019-05-10T01:18:00.567Z,9.55
2019-05-10T01:20:28.793Z,9.68
2019-05-10T01:22:57.029Z,9.48
2019-05-10T01:25:34.624Z,9.55
2019-05-10T01:27:55.211Z,9.70
2019-05-10T01:30:23.478Z,9.50
2019-05-10T01:32:52.060Z,9.40
2019-05-10T01:35:20.323Z,9.45
2019-05-10T01:37:48.556Z,10.25
2019-05-10T01:40:16.789Z,10.15
2019-05-10T01:42:45.013Z,10.60
2019-05-10T01:45:13.261Z,9.65
2019-05-10T01:47:41.651Z,11.10
2019-05-10T01:50:11.482Z,10.45
2019-05-10T01:52:40.640Z,10.65
2019-05-10T01:55:08.964Z,10.45
2019-05-10T01:57:37.197Z,11.60
2019-05-10T02:00:08.684Z,11.73
2019-05-10T02:02:36.952Z,11.22
2019-05-10T02:05:05.355Z,12.53
2019-05-10T02:07:33.750Z,12.58
2019-05-10T02:10:02.052Z,12.37
2019-05-10T02:12:30.407Z,13.72
2019-05-10T02:14:58.664Z,14.00
2019-05-10T02:17:26.910Z,12.00
2019-05-10T02:19:55.156Z,12.63
2019-05-10T02:22:23.387Z,12.18
2019-05-10T02:24:51.650Z,14.50
2019-05-10T02:27:19.913Z,13.30
2019-05-10T02:29:48.137Z,12.03
2019-05-10T02:32:17.238Z,12.30
2019-05-10T02:34:45.469Z,12.88
2019-05-10T02:37:13.756Z,13.43
2019-05-10T02:39:42.029Z,12.18
2019-05-10T02:42:10.278Z,13.00
2019-05-10T02:44:38.552Z,12.90
2019-05-10T02:47:06.793Z,13.08
2019-05-10T02:49:35.117Z,13.32
2019-05-10T02:52:03.347Z,13.20
2019-05-10T02:54:32.424Z,13.10
2019-05-10T02:57:00.689Z,12.63
2019-05-10T02:59:28.895Z,13.85
2019-05-10T03:01:57.172Z,12.23
2019-05-10T03:04:25.718Z,11.28
2019-05-10T03:06:57.236Z,12.47
2019-05-10T03:09:28.184Z,13.88
2019-05-10T03:11:56.433Z,13.62
2019-05-10T03:14:24.781Z,13.45
2019-05-10T03:16:53.815Z,14.33
2019-05-10T03:19:22.048Z,15.10
2019-05-10T03:21:53.515Z,14.33
2019-05-10T03:24:27.058Z,14.15
2019-05-10T03:26:52.115Z,12.90
2019-05-10T03:29:20.378Z,14.35
2019-05-10T03:31:48.997Z,16.40
2019-05-10T03:34:17.231Z,14.13
2019-05-10T03:36:45.476Z,14.63
2019-05-10T03:39:14.896Z,14.83
2019-05-10T03:41:43.137Z,16.55
2019-05-10T03:44:11.496Z,18.10
2019-05-10T03:46:39.781Z,17.45
2019-05-10T03:49:08.129Z,16.20
2019-05-10T03:51:36.373Z,16.80
2019-05-10T03:54:05.059Z,16.82
2019-05-10T03:56:33.629Z,17.48
2019-05-10T03:59:01.862Z,18.50
2019-05-10T04:01:30.128Z,21.17
2019-05-10T04:03:58.381Z,19.48
2019-05-10T04:06:26.635Z,18.02
2019-05-10T04:08:54.989Z,19.35
2019-05-10T04:11:23.299Z,21.30
2019-05-10T04:13:52.154Z,20.25
2019-05-10T04:16:21.484Z,23.65
2019-05-10T04:18:49.953Z,26.82
2019-05-10T04:21:18.330Z,27.45
2019-05-10T04:23:47.014Z,26.33
2019-05-10T04:26:15.411Z,26.15
2019-05-10T04:28:43.731Z,23.18
2019-05-10T04:31:11.990Z,29.27
2019-05-10T04:33:40.223Z,24.72
2019-05-10T04:36:12.409Z,26.20
2019-05-10T04:38:38.603Z,26.07
2019-05-10T04:41:06.889Z,29.23
2019-05-10T04:43:35.580Z,27.77
2019-05-10T04:46:04.256Z,27.80
2019-05-10T04:48:32.513Z,29.45
2019-05-10T04:51:00.760Z,30.77
2019-05-10T04:53:29.076Z,29.42
2019-05-10T04:55:58.127Z,29.82
2019-05-10T04:58:26.379Z,28.67
2019-05-10T05:00:55.613Z,32.28
2019-05-10T05:03:23.835Z,30.88
2019-05-10T05:05:52.076Z,29.02
2019-05-10T05:08:20.296Z,32.48
2019-05-10T05:10:48.676Z,34.58
2019-05-10T05:13:16.932Z,32.95
2019-05-10T05:15:45.515Z,35.20
2019-05-10T05:18:13.848Z,30.85
2019-05-10T05:20:42.163Z,36.63
2019-05-10T05:23:10.387Z,34.25
2019-05-10T05:25:40.256Z,33.48
2019-05-10T05:28:08.720Z,34.40
2019-05-10T05:30:39.023Z,34.92
2019-05-10T05:33:08.846Z,31.62
2019-05-10T05:35:37.141Z,31.05
2019-05-10T05:38:05.598Z,33.80
2019-05-10T05:40:34.926Z,29.10
2019-05-10T05:43:08.095Z,34.58
2019-05-10T05:45:34.553Z,26.52
2019-05-10T05:48:03.547Z,36.05
2019-05-10T05:50:31.871Z,32.10
2019-05-10T05:53:00.177Z,29.90
2019-05-10T05:55:30.771Z,30.68
2019-05-10T05:57:59.259Z,29.48
2019-05-10T06:00:28.492Z,27.13
2019-05-10T06:02:56.757Z,32.45
2019-05-10T06:05:34.087Z,27.50
2019-05-10T06:07:55.137Z,29.80
2019-05-10T06:10:23.433Z,32.03
2019-05-10T06:12:53.003Z,31.85
2019-05-10T06:15:22.998Z,26.73
2019-05-10T06:17:57.105Z,30.00
2019-05-10T06:20:21.678Z,40.20
2019-05-10T06:23:06.033Z,37.05
2019-05-10T06:25:38.113Z,30.35
2019-05-10T06:27:49.843Z,36.25
2019-05-10T06:30:18.832Z,35.63
2019-05-10T06:32:53.358Z,34.60
2019-05-10T06:35:19.565Z,35.08
2019-05-10T06:37:47.433Z,32.00
2019-05-10T06:40:15.729Z,36.13
2019-05-10T06:42:44.127Z,40.65
2019-05-10T06:45:15.756Z,37.00
2019-05-10T06:47:47.534Z,34.10
2019-05-10T06:50:12.549Z,37.58
2019-05-10T06:52:40.791Z,37.40
2019-05-10T06:55:09.015Z,37.58
2019-05-10T06:57:37.383Z,35.98
2019-05-10T07:00:08.509Z,39.38
2019-05-10T07:02:36.786Z,37.35
2019-05-10T07:05:05.028Z,38.65
2019-05-10T07:07:43.698Z,38.05
2019-05-10T07:10:13.065Z,34.83
2019-05-10T07:12:33.752Z,35.88
2019-05-10T07:15:03.335Z,23.77
2019-05-10T07:17:40.734Z,24.63
2019-05-10T07:20:03.444Z,21.57
2019-05-10T07:22:51.207Z,24.12
2019-05-10T07:25:19.430Z,25.52
2019-05-10T07:27:50.313Z,20.17
2019-05-10T07:30:32.531Z,21.70
2019-05-10T07:35:30.938Z,14.40
2019-05-10T07:38:00.136Z,13.35
2019-05-10T07:40:28.403Z,14.47
2019-05-10T07:42:56.700Z,11.10
2019-05-10T07:45:25.634Z,10.90
2019-05-10T07:47:54.915Z,8.75
2019-05-10T07:50:23.303Z,6.15
2019-05-10T07:52:51.616Z,6.47
2019-05-10T07:55:27.454Z,7.25
2019-05-10T07:57:49.901Z,7.12
2019-05-10T08:00:18.151Z,9.13
2019-05-10T08:02:55.009Z,8.55
2019-05-10T08:05:18.300Z,11.48
2019-05-10T08:07:46.465Z,9.40
2019-05-10T08:10:14.787Z,11.83
2019-05-10T08:12:45.669Z,11.22
2019-05-10T08:15:13.095Z,12.63
2019-05-10T08:17:45.607Z,13.10
2019-05-10T08:20:25.625Z,13.80
2019-05-10T08:22:45.671Z,13.10
2019-05-10T08:25:15.253Z,13.88
2019-05-10T08:27:50.045Z,12.03
2019-05-10T08:30:26.317Z,11.85
2019-05-10T08:32:42.577Z,10.95
2019-05-10T08:35:16.525Z,14.20
2019-05-10T08:37:43.233Z,11.95
2019-05-10T08:40:12.799Z,14.70
2019-05-10T08:42:48.216Z,16.87
2019-05-10T08:45:12.548Z,16.30
2019-05-10T08:47:42.637Z,18.35
2019-05-10T08:50:26.396Z,15.93
2019-05-10T08:52:42.306Z,15.85
2019-05-10T08:55:12.381Z,15.72
2019-05-10T08:57:44.478Z,16.42
2019-05-10T09:00:13.057Z,15.65
2019-05-10T09:02:42.682Z,15.32
2019-05-10T09:05:12.466Z,17.05
2019-05-10T09:07:42.937Z,15.38
2019-05-10T09:10:12.820Z,16.00
2019-05-10T09:12:50.273Z,17.23
2019-05-10T09:15:13.309Z,17.37
2019-05-10T09:17:42.778Z,20.88
2019-05-10T09:20:14.023Z,17.42
2019-05-10T09:22:42.443Z,16.12
2019-05-10T09:25:12.885Z,15.95
2019-05-10T09:27:43.218Z,14.73
2019-05-10T09:30:16.171Z,16.05
2019-05-10T09:32:43.165Z,18.37
2019-05-10T09:35:12.699Z,17.60
2019-05-10T09:37:42.050Z,16.82
2019-05-10T09:40:13.085Z,17.65
2019-05-10T09:42:43.378Z,12.15
2019-05-10T09:45:12.653Z,14.58
2019-05-10T09:47:43.524Z,13.98
2019-05-10T09:50:12.687Z,12.25
2019-05-10T09:52:41.224Z,12.88
2019-05-10T09:55:14.518Z,11.53
2019-05-10T09:57:40.263Z,11.08
2019-05-10T10:00:10.012Z,10.65
2019-05-10T10:02:40.670Z,8.38
2019-05-10T10:05:08.987Z,8.08
2019-05-10T10:07:37.461Z,9.23
2019-05-10T10:10:07.330Z,6.97
2019-05-10T10:12:37.298Z,4.20
2019-05-10T10:15:09.318Z,6.62
2019-05-10T10:17:40.323Z,5.87
2019-05-10T10:20:08.151Z,5.50
2019-05-10T10:22:38.161Z,4.40
2019-05-10T10:25:07.383Z,4.58
2019-05-10T10:27:38.751Z,5.72
2019-05-10T10:30:12.717Z,5.30
2019-05-10T10:32:37.565Z,7.67
2019-05-10T10:35:07.853Z,5.67
2019-05-10T10:37:37.957Z,8.05
2019-05-10T10:40:08.761Z,9.35
2019-05-10T10:42:38.078Z,7.35
2019-05-10T10:45:07.723Z,5.72
2019-05-10T10:47:38.153Z,6.33
2019-05-10T10:50:09.098Z,6.42
2019-05-10T10:52:37.775Z,7.35
2019-05-10T10:55:11.028Z,5.97
2019-05-10T10:57:37.478Z,5.33
2019-05-10T11:00:09.674Z,4.58
2019-05-10T11:02:41.348Z,4.42
2019-05-10T11:05:08.646Z,4.53
2019-05-10T11:07:41.118Z,5.85
2019-05-10T11:10:17.921Z,3.72
2019-05-10T11:12:37.885Z,3.15
2019-05-10T11:15:06.117Z,6.25
2019-05-10T11:17:34.453Z,4.28
2019-05-10T11:20:08.446Z,5.10
2019-05-10T11:22:35.500Z,4.75
2019-05-10T11:25:09.486Z,3.15
2019-05-10T11:27:35.008Z,5.25
2019-05-10T11:30:04.131Z,3.55
2019-05-10T11:32:32.336Z,4.33
2019-05-10T11:35:00.733Z,2.62
2019-05-10T11:37:32.834Z,5.35
2019-05-10T11:40:01.776Z,5.28
2019-05-10T11:42:31.744Z,4.62
2019-05-10T11:45:00.819Z,3.98
2019-05-10T11:47:31.251Z,4.15
2019-05-10T11:50:06.111Z,4.97
2019-05-10T11:52:34.620Z,4.20
2019-05-10T11:55:01.211Z,6.00
2019-05-10T11:57:32.895Z,3.72
2019-05-10T11:59:59.641Z,3.95
2019-05-10T12:02:38.538Z,6.03
2019-05-10T12:07:35.183Z,3.52
2019-05-10T12:10:08.425Z,4.20
2019-05-10T12:12:45.018Z,11.60
2019-05-10T12:14:58.004Z,5.85
2019-05-10T12:17:26.258Z,7.62
2019-05-10T12:19:56.338Z,2.17
2019-05-10T12:25:20.777Z,5.45
2019-05-10T12:25:59.929Z,4.00
2019-05-10T12:26:27.898Z,4.92
2019-05-10T12:27:30.035Z,6.25
2019-05-10T12:30:02.610Z,3.33
2019-05-10T12:32:32.060Z,8.03
2019-05-10T12:34:56.843Z,4.25
2019-05-10T12:37:25.188Z,7.55
2019-05-10T12:39:53.420Z,6.72
2019-05-10T12:42:21.919Z,7.22
2019-05-10T12:44:51.640Z,9.45
2019-05-10T12:47:21.451Z,7.75
2019-05-10T12:49:53.905Z,4.08
2019-05-10T12:52:22.125Z,5.12
2019-05-10T12:54:49.824Z,5.55
2019-05-10T12:57:18.052Z,4.40
2019-05-10T12:59:46.265Z,5.50
2019-05-10T13:02:14.575Z,5.60
2019-05-10T13:04:47.099Z,7.95
2019-05-10T13:07:13.025Z,7.37
2019-05-10T13:09:41.355Z,4.72
2019-05-10T13:12:09.730Z,4.65
2019-05-10T13:14:40.257Z,7.58
2019-05-10T13:17:09.929Z,4.30
2019-05-10T13:19:37.900Z,5.55
2019-05-10T13:22:07.445Z,6.28
2019-05-10T13:24:36.112Z,6.62
2019-05-10T13:27:04.364Z,8.55
2019-05-10T13:29:33.537Z,4.55
2019-05-10T13:32:01.783Z,6.53
2019-05-10T13:34:30.043Z,8.90
2019-05-10T13:36:58.288Z,5.85
2019-05-10T13:39:27.700Z,6.03
2019-05-10T13:41:57.236Z,6.53
2019-05-10T13:44:26.178Z,7.37
2019-05-10T13:46:54.405Z,5.45
2019-05-10T13:49:22.640Z,7.72
2019-05-10T13:51:51.816Z,7.37
2019-05-10T13:54:20.046Z,3.98
2019-05-10T13:56:52.422Z,3.72
2019-05-10T13:59:18.231Z,5.67
2019-05-10T14:01:49.528Z,6.28
2019-05-10T14:04:16.798Z,3.85
2019-05-10T14:06:45.196Z,5.78
2019-05-10T14:09:13.420Z,5.33
2019-05-10T14:11:46.909Z,4.92
2019-05-10T14:14:19.797Z,4.37
2019-05-10T14:16:44.446Z,5.42
2019-05-10T14:19:15.836Z,5.67
2019-05-10T14:21:43.588Z,2.92
2019-05-10T14:24:15.340Z,5.00
2019-05-10T14:26:41.927Z,6.80
2019-05-10T14:29:11.235Z,6.22
2019-05-10T14:31:40.481Z,6.33
2019-05-10T14:34:16.076Z,4.80
2019-05-10T14:36:40.826Z,6.83
2019-05-10T14:39:08.606Z,6.08
2019-05-10T14:41:39.857Z,5.67
2019-05-10T14:44:06.811Z,4.95
2019-05-10T14:46:35.023Z,6.37
2019-05-10T14:49:09.618Z,6.30
2019-05-10T14:51:49.455Z,5.17
2019-05-10T14:54:06.814Z,8.88
2019-05-10T14:56:33.422Z,7.65
2019-05-10T14:59:03.166Z,7.72
2019-05-10T15:01:36.823Z,3.67
2019-05-10T15:04:01.457Z,8.85
2019-05-10T15:06:30.625Z,8.15
2019-05-10T15:08:59.630Z,7.53
2019-05-10T15:11:31.633Z,5.45
2019-05-10T15:13:57.811Z,8.18
2019-05-10T15:16:30.374Z,11.55
2019-05-10T15:18:57.008Z,5.37
2019-05-10T15:21:25.531Z,4.80
2019-05-10T15:23:55.303Z,8.35
2019-05-10T15:26:23.843Z,7.50
2019-05-10T15:28:52.149Z,6.42
2019-05-10T15:31:23.679Z,9.40
2019-05-10T15:33:50.320Z,5.83
2019-05-10T15:36:23.758Z,8.15
2019-05-10T15:38:51.665Z,5.35
2019-05-10T15:41:22.393Z,10.35
2019-05-10T15:43:53.358Z,9.25
2019-05-10T15:46:18.891Z,8.63
2019-05-10T15:48:48.050Z,8.85
2019-05-10T15:51:16.945Z,8.85
2019-05-10T15:53:46.255Z,7.80
2019-05-10T15:56:14.502Z,8.18
2019-05-10T15:58:42.944Z,4.03
2019-05-10T16:01:14.137Z,11.25
2019-05-10T16:03:41.392Z,6.47
2019-05-10T16:06:09.615Z,5.87
2019-05-10T16:08:38.939Z,7.35
2019-05-10T16:11:17.537Z,9.73
2019-05-10T16:13:37.111Z,5.45
2019-05-10T16:16:05.367Z,9.70
2019-05-10T16:18:39.881Z,7.42
2019-05-10T16:21:03.589Z,15.58
2019-05-10T16:23:31.823Z,5.55
2019-05-10T16:29:39.706Z,8.48
2019-05-10T16:32:04.215Z,10.80
2019-05-10T16:34:34.177Z,8.75
2019-05-10T16:37:02.648Z,8.78
2019-05-10T16:39:48.875Z,8.50
2019-05-10T16:42:18.341Z,6.83
2019-05-10T16:44:46.712Z,16.00
2019-05-10T16:47:14.958Z,11.55
2019-05-10T16:49:47.839Z,10.18
2019-05-10T16:52:13.171Z,17.85
2019-05-10T16:54:41.386Z,10.85
2019-05-10T16:57:09.635Z,7.85
2019-05-10T16:59:37.923Z,9.23
2019-05-10T17:02:06.640Z,10.35
2019-05-10T17:04:37.528Z,11.15
2019-05-10T17:07:05.155Z,7.85
2019-05-10T17:09:33.458Z,10.53
2019-05-10T17:12:01.711Z,9.85
2019-05-10T17:14:29.919Z,9.23
2019-05-10T17:16:59.795Z,12.50
2019-05-10T17:19:33.857Z,9.63
2019-05-10T17:21:58.070Z,9.60
2019-05-10T17:24:26.372Z,9.33
2019-05-10T17:26:54.615Z,10.18
2019-05-10T17:29:23.125Z,10.32
2019-05-10T17:31:51.443Z,13.93
2019-05-10T17:34:27.540Z,9.70
2019-05-10T17:36:57.079Z,14.13
2019-05-10T17:39:19.916Z,18.20
2019-05-10T17:41:48.157Z,9.75
2019-05-10T17:44:23.140Z,8.43
2019-05-10T17:46:50.223Z,9.40
2019-05-10T17:49:18.827Z,12.98
2019-05-10T17:51:47.049Z,9.68
2019-05-10T17:54:16.537Z,12.82
2019-05-10T17:56:44.805Z,11.30
2019-05-10T17:59:14.002Z,9.00
2019-05-10T18:01:42.285Z,11.10
2019-05-10T18:04:10.551Z,10.72
2019-05-10T18:06:38.924Z,8.63
2019-05-10T18:09:07.199Z,9.68
2019-05-10T18:11:36.781Z,6.58
2019-05-10T18:14:05.550Z,8.45
2019-05-10T18:16:33.779Z,8.68
2019-05-10T18:19:02.221Z,11.38
2019-05-10T18:21:30.459Z,15.25
2019-05-10T18:23:59.811Z,10.00
2019-05-10T18:26:33.975Z,12.33
2019-05-10T18:28:59.085Z,10.90
2019-05-10T18:31:27.339Z,13.88
2019-05-10T18:33:56.005Z,12.63
2019-05-10T18:36:40.996Z,13.80
2019-05-10T18:38:54.589Z,9.20
2019-05-10T18:41:22.882Z,11.53
2019-05-10T18:43:51.114Z,10.13
2019-05-10T18:46:19.369Z,13.85
2019-05-10T18:48:47.729Z,13.62
2019-05-10T18:51:17.894Z,13.83
2019-05-10T18:53:46.400Z,11.97
2019-05-10T18:56:14.651Z,10.08
2019-05-10T18:58:42.948Z,15.10
2019-05-10T19:01:11.181Z,11.83
2019-05-10T19:03:39.422Z,9.68
2019-05-10T19:06:10.955Z,12.00
2019-05-10T19:08:37.739Z,14.05
2019-05-10T19:11:06.657Z,11.20
2019-05-10T19:13:46.736Z,12.18
2019-05-10T19:16:05.279Z,11.88
2019-05-10T19:18:33.561Z,15.30
2019-05-10T19:21:02.015Z,11.22
2019-05-10T19:23:30.230Z,12.90
2019-05-10T19:25:58.454Z,10.70
2019-05-10T19:28:28.370Z,12.60
2019-05-10T19:30:58.663Z,11.12
2019-05-10T19:33:29.893Z,13.15
2019-05-10T19:35:56.904Z,12.33
2019-05-10T19:38:25.188Z,9.08
2019-05-10T19:40:53.531Z,11.78
2019-05-10T19:43:23.818Z,11.50
2019-05-10T19:45:57.491Z,10.95
2019-05-10T19:48:21.995Z,13.43
2019-05-10T19:50:50.214Z,11.63
2019-05-10T19:53:18.495Z,14.95
2019-05-10T19:55:51.323Z,9.28
2019-05-10T19:58:16.686Z,10.20
2019-05-10T20:00:45.012Z,12.15
2019-05-10T20:03:13.419Z,12.00
2019-05-10T20:05:41.668Z,12.65
2019-05-10T20:08:10.052Z,10.65
2019-05-10T20:10:38.363Z,8.53
2019-05-10T20:13:06.607Z,10.00
2019-05-10T20:15:35.043Z,9.13
2019-05-10T20:18:03.355Z,9.53
2019-05-10T20:20:32.244Z,12.45
2019-05-10T20:23:00.692Z,13.00
2019-05-10T20:25:28.987Z,11.45
2019-05-10T20:27:57.256Z,8.75
2019-05-10T20:30:25.521Z,14.18
2019-05-10T20:32:53.757Z,10.90
2019-05-10T20:35:22.004Z,13.65
2019-05-10T20:38:01.263Z,16.15
2019-05-10T20:40:20.267Z,12.93
2019-05-10T20:42:48.528Z,11.90
2019-05-10T20:45:16.742Z,9.13
2019-05-10T20:47:45.081Z,11.63
2019-05-10T20:50:13.356Z,11.53
2019-05-10T20:52:41.601Z,10.60
2019-05-10T20:55:10.025Z,9.75
2019-05-10T20:57:38.244Z,9.45
2019-05-10T21:00:06.870Z,14.87
2019-05-10T21:02:35.169Z,13.53
2019-05-10T21:05:05.144Z,16.75
2019-05-10T21:07:33.434Z,12.93
2019-05-10T21:10:01.673Z,17.42
2019-05-10T21:12:30.004Z,15.10
2019-05-10T21:14:58.237Z,14.73
2019-05-10T21:17:26.475Z,13.98
2019-05-10T21:19:54.706Z,10.72
2019-05-10T21:22:22.927Z,12.90
2019-05-10T21:24:51.150Z,14.25
2019-05-10T21:27:19.419Z,26.25
2019-05-10T21:29:47.810Z,14.63
2019-05-10T21:32:16.039Z,12.85
2019-05-10T21:34:44.254Z,15.00
2019-05-10T21:37:12.486Z,12.35
2019-05-10T21:39:40.725Z,13.28
2019-05-10T21:42:11.474Z,14.87
2019-05-10T21:44:39.714Z,14.20
2019-05-10T21:47:07.924Z,14.03
2019-05-10T21:49:36.151Z,12.10
2019-05-10T21:52:04.391Z,13.90
2019-05-10T21:54:32.675Z,12.03
2019-05-10T21:57:00.940Z,14.05
2019-05-10T21:59:29.210Z,16.15
2019-05-10T22:01:59.080Z,11.08
2019-05-10T22:04:27.356Z,9.60
2019-05-10T22:06:55.567Z,17.10
2019-05-10T22:09:23.919Z,16.00
2019-05-10T22:11:52.367Z,13.95
2019-05-10T22:14:20.583Z,11.60
2019-05-10T22:16:49.066Z,13.78
2019-05-10T22:19:17.299Z,13.45
2019-05-10T22:21:45.535Z,10.43
2019-05-10T22:24:13.884Z,11.97
2019-05-10T22:26:42.110Z,13.72
2019-05-10T22:29:10.317Z,15.48
2019-05-10T22:31:38.543Z,14.10
2019-05-10T22:34:06.838Z,14.53
2019-05-10T22:36:35.062Z,17.32
2019-05-10T22:39:07.513Z,14.93
2019-05-10T22:41:34.083Z,19.25
2019-05-10T22:44:03.207Z,10.88
2019-05-10T22:46:31.424Z,13.88
2019-05-10T22:48:59.651Z,15.05
2019-05-10T22:51:27.871Z,14.95
2019-05-10T22:54:00.093Z,14.33
2019-05-10T22:56:26.149Z,14.70
2019-05-10T22:58:54.345Z,14.87
2019-05-10T23:01:22.583Z,16.60
2019-05-10T23:03:50.807Z,17.77
2019-05-10T23:06:19.235Z,15.45
2019-05-10T23:08:47.556Z,14.30
2019-05-10T23:11:16.089Z,18.60
2019-05-10T23:13:44.331Z,12.50
2019-05-10T23:16:12.560Z,15.90
2019-05-10T23:18:40.806Z,13.80
2019-05-10T23:21:09.104Z,15.48
2019-05-10T23:23:37.315Z,16.15
2019-05-10T23:26:05.533Z,15.38
2019-05-10T23:28:33.847Z,14.80
2019-05-10T23:31:02.059Z,14.87
2019-05-10T23:33:30.294Z,20.48
2019-05-10T23:35:58.522Z,11.28
2019-05-10T23:38:26.796Z,11.83
2019-05-10T23:40:55.033Z,14.95
2019-05-10T23:43:23.254Z,17.55
2019-05-10T23:45:51.475Z,15.80
2019-05-10T23:48:19.695Z,16.73
2019-05-10T23:50:47.911Z,15.88
2019-05-10T23:53:16.144Z,11.97
2019-05-10T23:55:44.356Z,16.62
2019-05-10T23:58:12.609Z,15.50
